createdAt,value
2022-08-09T00:00:07.030Z,1.00
2022-08-09T00:02:35.835Z,0.90
2022-08-09T00:06:19.549Z,1.20
2022-08-09T00:07:52.384Z,1.10
2022-08-09T00:10:24.631Z,1.05
2022-08-09T00:12:53.029Z,1.17
2022-08-09T00:15:35.533Z,1.00
2022-08-09T00:18:11.547Z,1.27
2022-08-09T00:20:41.439Z,0.93
2022-08-09T00:23:57.139Z,1.20
2022-08-09T00:26:04.908Z,1.17
2022-08-09T00:28:34.704Z,1.30
2022-08-09T00:31:02.411Z,1.00
2022-08-09T00:33:51.487Z,1.20
2022-08-09T00:36:19.416Z,1.02
2022-08-09T00:38:46.769Z,1.00
2022-08-09T00:44:10.889Z,1.38
2022-08-09T00:44:20.514Z,1.17
2022-08-09T00:46:57.022Z,0.95
2022-08-09T00:49:32.019Z,1.25
2022-08-09T00:52:02.088Z,1.25
2022-08-09T00:54:35.990Z,1.00
2022-08-09T00:57:10.436Z,1.23
2022-08-09T00:59:41.123Z,1.20
2022-08-09T01:02:13.546Z,1.15
2022-08-09T01:04:44.023Z,1.15
2022-08-09T01:07:13.803Z,1.02
2022-08-09T01:09:43.843Z,1.10
2022-08-09T01:12:18.276Z,0.98
2022-08-09T01:14:52.588Z,1.02
2022-08-09T01:17:23.282Z,1.00
2022-08-09T01:20:02.998Z,1.10
2022-08-09T01:22:51.967Z,1.17
2022-08-09T01:25:25.603Z,0.95
2022-08-09T01:27:57.117Z,1.00
2022-08-09T01:30:33.739Z,1.08
2022-08-09T01:33:03.035Z,0.90
2022-08-09T01:35:38.486Z,1.13
2022-08-09T01:38:10.735Z,1.00
2022-08-09T01:40:43.756Z,1.08
2022-08-09T01:43:12.566Z,0.90
2022-08-09T01:45:45.993Z,1.20
2022-08-09T01:48:15.578Z,1.00
2022-08-09T01:50:43.144Z,1.10
2022-08-09T01:53:19.764Z,0.90
2022-08-09T01:55:47.722Z,1.25
2022-08-09T01:58:16.487Z,1.40
2022-08-09T02:00:46.138Z,1.30
2022-08-09T02:03:13.955Z,1.05
2022-08-09T02:06:03.402Z,1.13
2022-08-09T02:08:35.159Z,1.00
2022-08-09T02:11:16.892Z,1.27
2022-08-09T02:14:06.202Z,1.10
2022-08-09T02:17:00.080Z,1.10
2022-08-09T02:19:23.091Z,0.95
2022-08-09T02:21:55.703Z,1.00
2022-08-09T02:24:25.913Z,1.00
2022-08-09T02:26:54.330Z,0.88
2022-08-09T02:29:24.239Z,0.93
2022-08-09T02:31:51.797Z,1.30
2022-08-09T02:34:40.222Z,1.15
2022-08-09T02:37:07.417Z,1.17
2022-08-09T02:39:42.669Z,0.95
2022-08-09T02:42:16.846Z,1.20
2022-08-09T02:44:47.979Z,1.30
2022-08-09T02:47:15.746Z,1.15
2022-08-09T02:49:44.348Z,1.25
2022-08-09T02:52:12.918Z,1.00
2022-08-09T02:54:54.027Z,1.13
2022-08-09T02:57:23.190Z,1.25
2022-08-09T03:00:25.745Z,1.15
2022-08-09T03:02:58.422Z,1.13
2022-08-09T03:05:27.606Z,1.10
2022-08-09T03:07:55.613Z,0.85
2022-08-09T03:10:23.165Z,0.98
2022-08-09T03:12:52.094Z,1.10
2022-08-09T03:15:23.108Z,0.93
2022-08-09T03:17:53.806Z,1.15
2022-08-09T03:20:25.507Z,1.40
2022-08-09T03:23:00.338Z,1.10
2022-08-09T03:26:02.234Z,1.20
2022-08-09T03:28:29.510Z,1.10
2022-08-09T03:30:58.930Z,1.33
2022-08-09T03:33:26.297Z,1.23
2022-08-09T03:36:16.572Z,1.30
2022-08-09T03:38:44.952Z,1.10
2022-08-09T03:41:15.050Z,1.30
2022-08-09T03:43:43.473Z,1.00
2022-08-09T03:46:32.166Z,1.30
2022-08-09T03:49:03.633Z,1.00
2022-08-09T03:51:57.745Z,1.10
2022-08-09T03:54:19.375Z,1.25
2022-08-09T03:56:57.841Z,1.42
2022-08-09T03:59:27.169Z,1.30
2022-08-09T04:02:11.446Z,1.17
2022-08-09T04:04:45.572Z,1.15
2022-08-09T04:07:14.492Z,1.30
2022-08-09T04:09:50.119Z,1.30
2022-08-09T04:12:32.629Z,1.20
2022-08-09T04:15:11.575Z,1.23
2022-08-09T04:17:47.556Z,1.10
2022-08-09T04:20:15.107Z,1.25
2022-08-09T04:22:44.444Z,1.15
2022-08-09T04:25:11.942Z,1.27
2022-08-09T04:27:42.071Z,1.40
2022-08-09T04:30:14.451Z,1.17
2022-08-09T04:32:45.940Z,1.17
2022-08-09T04:35:15.585Z,1.23
2022-08-09T04:37:46.255Z,1.20
2022-08-09T04:40:19.021Z,1.30
2022-08-09T04:42:48.568Z,1.23
2022-08-09T04:45:16.372Z,1.15
2022-08-09T04:48:00.165Z,1.30
2022-08-09T04:50:33.751Z,1.30
2022-08-09T04:53:02.543Z,1.40
2022-08-09T04:55:38.054Z,1.15
2022-08-09T04:58:09.712Z,1.20
2022-08-09T05:00:37.413Z,1.30
2022-08-09T05:03:30.274Z,1.48
2022-08-09T05:06:06.669Z,1.20
2022-08-09T05:08:34.654Z,1.33
2022-08-09T05:11:02.454Z,1.30
2022-08-09T05:13:33.126Z,1.23
2022-08-09T05:16:01.305Z,1.10
2022-08-09T05:18:50.331Z,1.30
2022-08-09T05:21:24.464Z,1.23
2022-08-09T05:23:56.974Z,1.42
2022-08-09T05:26:36.030Z,1.20
2022-08-09T05:29:04.806Z,1.67
2022-08-09T05:31:44.862Z,1.60
2022-08-09T05:34:17.057Z,1.30
2022-08-09T05:36:47.115Z,1.58
2022-08-09T05:39:28.610Z,1.35
2022-08-09T05:42:01.780Z,1.30
2022-08-09T05:44:34.574Z,1.50
2022-08-09T05:47:05.612Z,1.55
2022-08-09T05:50:23.734Z,1.50
2022-08-09T05:52:21.938Z,1.30
2022-08-09T05:54:52.213Z,1.30
2022-08-09T05:57:19.702Z,1.40
2022-08-09T05:59:52.555Z,1.50
2022-08-09T06:02:20.574Z,1.20
2022-08-09T06:04:49.366Z,1.50
2022-08-09T06:07:21.613Z,1.35
2022-08-09T06:09:55.059Z,1.60
2022-08-09T06:12:29.275Z,1.40
2022-08-09T06:15:01.036Z,1.65
2022-08-09T06:17:40.050Z,1.40
2022-08-09T06:20:08.554Z,1.55
2022-08-09T06:22:36.643Z,1.33
2022-08-09T06:25:08.567Z,1.40
2022-08-09T06:27:42.151Z,1.50
2022-08-09T06:30:10.641Z,1.52
2022-08-09T06:32:59.631Z,1.25
2022-08-09T06:35:56.154Z,1.70
2022-08-09T06:38:17.146Z,1.77
2022-08-09T06:40:48.031Z,1.23
2022-08-09T06:43:22.247Z,1.60
2022-08-09T06:46:07.814Z,1.30
2022-08-09T06:48:42.668Z,1.30
2022-08-09T06:51:10.532Z,1.30
2022-08-09T06:53:38.228Z,1.63
2022-08-09T06:56:07.815Z,1.30
2022-08-09T07:00:52.864Z,1.35
2022-08-09T07:01:27.593Z,1.40
2022-08-09T07:04:03.893Z,1.65
2022-08-09T07:06:31.711Z,1.40
2022-08-09T07:08:59.060Z,1.20
2022-08-09T07:11:45.533Z,1.30
2022-08-09T07:14:17.993Z,1.20
2022-08-09T07:16:58.023Z,1.17
2022-08-09T07:19:26.487Z,1.38
2022-08-09T07:21:57.211Z,1.30
2022-08-09T07:24:32.792Z,1.27
2022-08-09T07:27:11.181Z,1.17
2022-08-09T07:29:54.042Z,1.20
2022-08-09T07:32:32.334Z,1.42
2022-08-09T07:35:01.143Z,1.38
2022-08-09T07:37:30.283Z,1.35
2022-08-09T07:40:12.973Z,1.58
2022-08-09T07:42:49.983Z,1.20
2022-08-09T07:45:33.261Z,1.33
2022-08-09T07:48:05.322Z,1.40
2022-08-09T07:50:36.355Z,1.30
2022-08-09T07:53:04.884Z,1.17
2022-08-09T07:56:02.830Z,1.20
2022-08-09T07:58:21.607Z,1.40
2022-08-09T08:00:55.811Z,1.40
2022-08-09T08:03:33.201Z,1.35
2022-08-09T08:06:04.184Z,1.30
2022-08-09T08:09:02.469Z,1.20
2022-08-09T08:12:19.775Z,1.40
2022-08-09T08:14:07.564Z,1.10
2022-08-09T08:16:36.338Z,1.13
2022-08-09T08:19:07.090Z,1.38
2022-08-09T08:21:34.530Z,1.30
2022-08-09T08:24:11.881Z,1.60
2022-08-09T08:26:55.811Z,1.25
2022-08-09T08:29:27.689Z,1.20
2022-08-09T08:32:04.131Z,1.00
2022-08-09T08:34:34.567Z,1.20
2022-08-09T08:37:03.783Z,1.02
2022-08-09T08:39:38.219Z,1.00
2022-08-09T08:42:10.837Z,1.13
2022-08-09T08:44:39.765Z,1.20
2022-08-09T08:47:12.894Z,1.13
2022-08-09T08:49:46.929Z,1.20
2022-08-09T08:52:48.650Z,0.95
2022-08-09T08:55:04.063Z,1.00
2022-08-09T08:57:35.326Z,0.98
2022-08-09T09:00:12.600Z,1.02
2022-08-09T09:02:44.429Z,1.00
2022-08-09T09:05:19.095Z,0.70
2022-08-09T09:07:53.757Z,0.70
2022-08-09T09:10:24.191Z,1.00
2022-08-09T09:12:54.156Z,1.10
2022-08-09T09:15:28.385Z,1.13
2022-08-09T09:17:56.233Z,1.00
2022-08-09T09:20:23.557Z,0.93
2022-08-09T09:22:54.073Z,0.80
2022-08-09T09:26:02.411Z,0.82
2022-08-09T09:29:02.589Z,1.13
2022-08-09T09:31:17.645Z,0.70
2022-08-09T09:34:10.674Z,0.90
2022-08-09T09:36:51.078Z,1.00
2022-08-09T09:39:22.727Z,1.00
2022-08-09T09:41:51.168Z,0.95
2022-08-09T09:44:25.959Z,0.65
2022-08-09T09:47:05.473Z,0.73
2022-08-09T09:50:06.766Z,0.68
2022-08-09T09:52:36.882Z,1.00
2022-08-09T09:55:16.049Z,0.73
2022-08-09T09:58:03.426Z,0.70
2022-08-09T10:00:34.950Z,0.63
2022-08-09T10:03:11.393Z,0.65
2022-08-09T10:06:03.490Z,0.80
2022-08-09T10:08:32.109Z,0.80
2022-08-09T10:10:59.578Z,0.88
2022-08-09T10:13:43.130Z,0.80
2022-08-09T10:16:57.015Z,0.52
2022-08-09T10:19:00.315Z,0.70
2022-08-09T10:21:29.543Z,0.73
2022-08-09T10:23:57.240Z,0.70
2022-08-09T10:26:26.837Z,0.80
2022-08-09T10:29:20.966Z,0.77
2022-08-09T10:34:33.432Z,0.73
2022-08-09T10:37:03.154Z,0.93
2022-08-09T10:39:30.531Z,0.80
2022-08-09T10:42:08.412Z,0.90
2022-08-09T10:44:37.479Z,0.70
2022-08-09T10:48:16.476Z,0.70
2022-08-09T10:50:16.036Z,0.70
2022-08-09T10:52:50.959Z,0.80
2022-08-09T10:55:22.761Z,0.85
2022-08-09T10:57:51.713Z,0.70
2022-08-09T11:00:35.792Z,0.70
2022-08-09T11:03:16.418Z,0.70
2022-08-09T11:06:10.198Z,0.60
2022-08-09T11:08:47.113Z,0.77
2022-08-09T11:11:15.114Z,0.80
2022-08-09T11:13:50.742Z,0.80
2022-08-09T11:16:35.673Z,0.88
2022-08-09T11:19:09.586Z,0.70
2022-08-09T11:21:57.024Z,0.75
2022-08-09T11:24:47.914Z,0.50
2022-08-09T11:28:04.705Z,0.70
2022-08-09T11:30:32.805Z,0.70
2022-08-09T11:33:02.293Z,0.60
2022-08-09T11:35:35.348Z,0.80
2022-08-09T11:38:18.053Z,0.60
2022-08-09T11:40:45.805Z,0.60
2022-08-09T11:43:16.976Z,0.80
2022-08-09T11:45:54.141Z,0.80
2022-08-09T11:48:26.828Z,0.60
2022-08-09T11:53:00.492Z,0.65
2022-08-09T11:53:58.515Z,0.68
2022-08-09T11:56:41.726Z,0.80
2022-08-09T11:59:30.605Z,0.73
2022-08-09T12:02:34.305Z,0.60
2022-08-09T12:04:48.728Z,0.70
2022-08-09T12:07:22.135Z,0.60
2022-08-09T12:09:51.288Z,0.60
2022-08-09T12:12:20.183Z,0.60
2022-08-09T12:15:08.262Z,0.57
2022-08-09T12:17:43.445Z,0.70
2022-08-09T12:20:19.862Z,0.93
2022-08-09T12:22:50.346Z,0.60
2022-08-09T12:25:18.195Z,0.40
2022-08-09T12:28:58.818Z,0.50
2022-08-09T12:31:00.070Z,0.60
2022-08-09T12:33:51.047Z,0.68
2022-08-09T12:36:27.622Z,0.70
2022-08-09T12:38:59.809Z,0.70
2022-08-09T12:41:27.915Z,0.50
2022-08-09T12:44:06.180Z,0.50
2022-08-09T12:46:36.515Z,0.80
2022-08-09T12:49:03.917Z,0.73
2022-08-09T12:52:00.537Z,0.77
2022-08-09T12:54:18.639Z,0.80
2022-08-09T12:56:53.857Z,0.60
2022-08-09T12:59:21.799Z,0.63
2022-08-09T13:02:02.025Z,0.50
2022-08-09T13:04:36.293Z,1.00
2022-08-09T13:07:11.849Z,0.70
2022-08-09T13:09:52.843Z,0.60
2022-08-09T13:12:28.046Z,0.88
2022-08-09T13:15:03.507Z,0.50
2022-08-09T13:18:03.091Z,0.70
2022-08-09T13:20:37.250Z,0.60
2022-08-09T13:24:17.188Z,0.45
2022-08-09T13:26:07.035Z,0.68
2022-08-09T13:28:39.594Z,0.60
2022-08-09T13:32:14.219Z,0.60
2022-08-09T13:33:56.571Z,0.50
2022-08-09T13:36:40.309Z,0.63
2022-08-09T13:39:34.355Z,0.88
2022-08-09T13:42:01.739Z,0.47
2022-08-09T13:44:29.626Z,0.65
2022-08-09T13:47:27.536Z,0.60
2022-08-09T13:49:58.151Z,0.60
2022-08-09T13:52:28.669Z,0.70
2022-08-09T13:55:00.269Z,0.60
2022-08-09T13:57:36.520Z,0.60
2022-08-09T14:00:05.615Z,0.80
2022-08-09T14:02:33.506Z,0.63
2022-08-09T14:05:13.522Z,0.50
2022-08-09T14:08:01.201Z,0.60
2022-08-09T14:10:46.250Z,0.70
2022-08-09T14:13:21.521Z,0.68
2022-08-09T14:16:08.946Z,0.60
2022-08-09T14:18:38.573Z,0.55
2022-08-09T14:21:07.463Z,0.68
2022-08-09T14:23:40.194Z,0.50
2022-08-09T14:26:21.326Z,0.50
2022-08-09T14:28:48.699Z,0.63
2022-08-09T14:31:16.047Z,0.40
2022-08-09T14:33:43.405Z,0.52
2022-08-09T14:36:21.178Z,0.70
2022-08-09T14:38:52.840Z,0.60
2022-08-09T14:41:34.426Z,0.75
2022-08-09T14:44:07.922Z,0.70
2022-08-09T14:46:55.437Z,0.57
2022-08-09T14:49:26.241Z,0.50
2022-08-09T14:51:58.773Z,0.50
2022-08-09T14:54:27.909Z,0.50
2022-08-09T14:56:58.591Z,0.52
2022-08-09T14:59:27.228Z,0.60
2022-08-09T15:01:54.773Z,0.70
2022-08-09T15:04:23.696Z,0.65
2022-08-09T15:06:51.691Z,0.60
2022-08-09T15:10:03.656Z,0.50
2022-08-09T15:12:09.827Z,0.60
2022-08-09T15:14:39.172Z,0.60
2022-08-09T15:17:07.600Z,0.60
2022-08-09T15:19:36.811Z,0.73
2022-08-09T15:22:04.356Z,0.60
2022-08-09T15:24:34.356Z,0.60
2022-08-09T15:27:01.794Z,0.70
2022-08-09T15:30:55.473Z,0.60
2022-08-09T15:32:28.624Z,0.50
2022-08-09T15:35:00.825Z,0.60
2022-08-09T15:37:56.631Z,0.63
2022-08-09T15:40:32.421Z,0.63
2022-08-09T15:43:01.908Z,0.55
2022-08-09T15:45:30.146Z,0.52
2022-08-09T15:48:05.258Z,0.57
2022-08-09T15:50:39.209Z,0.60
2022-08-09T15:53:17.792Z,0.55
2022-08-09T15:56:04.295Z,0.60
2022-08-09T15:58:35.753Z,0.60
2022-08-09T16:01:03.881Z,0.68
2022-08-09T16:03:38.879Z,0.60
2022-08-09T16:06:32.633Z,0.60
2022-08-09T16:09:00.985Z,0.52
2022-08-09T16:11:33.326Z,0.40
2022-08-09T16:14:05.315Z,0.70
2022-08-09T16:16:34.565Z,0.75
2022-08-09T16:19:04.589Z,0.60
2022-08-09T16:21:34.117Z,0.50
2022-08-09T16:24:04.797Z,0.60
2022-08-09T16:26:36.268Z,0.60
2022-08-09T16:29:10.704Z,0.57
2022-08-09T16:32:19.329Z,0.40
2022-08-09T16:34:27.048Z,1.00
2022-08-09T16:36:56.471Z,0.77
2022-08-09T16:39:25.909Z,0.60
2022-08-09T16:42:03.624Z,0.75
2022-08-09T16:44:32.392Z,0.77
2022-08-09T16:47:03.882Z,0.60
2022-08-09T16:50:32.260Z,0.70
2022-08-09T16:52:34.894Z,0.65
2022-08-09T16:55:02.533Z,0.60
2022-08-09T16:58:08.185Z,0.73
2022-08-09T17:00:18.843Z,0.60
2022-08-09T17:02:46.658Z,0.90
2022-08-09T17:05:20.065Z,0.60
2022-08-09T17:08:45.872Z,0.70
2022-08-09T17:10:34.942Z,0.50
2022-08-09T17:13:06.127Z,0.80
2022-08-09T17:15:59.005Z,0.80
2022-08-09T17:18:27.047Z,0.68
2022-08-09T17:20:57.359Z,0.70
2022-08-09T17:23:37.074Z,0.80
2022-08-09T17:26:12.425Z,0.77
2022-08-09T17:28:41.223Z,0.82
2022-08-09T17:31:09.550Z,0.90
2022-08-09T17:33:37.966Z,0.70
2022-08-09T17:36:06.279Z,0.60
2022-08-09T17:38:39.463Z,1.00
2022-08-09T17:41:08.604Z,0.70
2022-08-09T17:43:38.275Z,0.90
2022-08-09T17:46:09.577Z,0.70
2022-08-09T17:48:39.664Z,0.82
2022-08-09T17:51:15.998Z,0.88
2022-08-09T17:53:53.436Z,0.82
2022-08-09T17:56:28.855Z,0.50
2022-08-09T17:59:00.879Z,0.63
2022-08-09T18:01:57.749Z,0.63
2022-08-09T18:04:20.541Z,0.63
2022-08-09T18:06:49.960Z,0.70
2022-08-09T18:09:22.721Z,0.70
2022-08-09T18:12:15.501Z,0.70
2022-08-09T18:14:49.889Z,0.52
2022-08-09T18:17:27.472Z,0.70
2022-08-09T18:20:53.814Z,0.70
2022-08-09T18:22:57.268Z,1.25
2022-08-09T18:25:53.502Z,0.60
2022-08-09T18:30:35.311Z,0.90
2022-08-09T18:31:01.924Z,0.68
2022-08-09T18:33:31.321Z,0.50
2022-08-09T18:36:04.481Z,0.90
2022-08-09T18:38:31.861Z,0.73
2022-08-09T18:40:59.224Z,0.68
2022-08-09T18:43:27.906Z,0.65
2022-08-09T18:46:50.004Z,0.60
2022-08-09T18:48:51.149Z,0.70
2022-08-09T18:51:18.520Z,0.65
2022-08-09T18:54:12.555Z,0.68
2022-08-09T18:56:43.739Z,0.70
2022-08-09T18:59:21.319Z,0.60
2022-08-09T19:01:48.724Z,0.60
2022-08-09T19:04:34.773Z,0.80
2022-08-09T19:07:02.731Z,0.90
2022-08-09T19:10:14.639Z,0.75
2022-08-09T19:12:27.281Z,0.73
2022-08-09T19:14:56.336Z,0.80
2022-08-09T19:17:31.184Z,0.88
2022-08-09T19:20:02.201Z,1.02
2022-08-09T19:22:31.533Z,0.70
2022-08-09T19:25:11.918Z,0.70
2022-08-09T19:27:46.460Z,0.80
2022-08-09T19:30:22.670Z,0.80
2022-08-09T19:32:56.223Z,0.65
2022-08-09T19:35:27.403Z,0.60
2022-08-09T19:37:57.607Z,0.82
2022-08-09T19:40:34.589Z,0.80
2022-08-09T19:43:03.774Z,0.88
2022-08-09T19:45:39.213Z,0.90
2022-08-09T19:48:09.617Z,0.70
2022-08-09T19:50:51.487Z,0.73
2022-08-09T19:53:21.618Z,0.80
2022-08-09T19:56:02.163Z,0.90
2022-08-09T19:58:30.883Z,0.77
2022-08-09T20:01:00.005Z,0.52
2022-08-09T20:04:08.230Z,0.80
2022-08-09T20:06:23.571Z,0.90
2022-08-09T20:08:51.679Z,0.70
2022-08-09T20:11:19.948Z,0.80
2022-08-09T20:13:54.138Z,0.80
2022-08-09T20:16:35.604Z,0.70
2022-08-09T20:19:48.175Z,0.50
2022-08-09T20:21:57.423Z,0.65
2022-08-09T20:24:29.598Z,0.73
2022-08-09T20:27:01.975Z,0.63
2022-08-09T20:29:37.616Z,0.65
2022-08-09T20:32:31.224Z,0.63
2022-08-09T20:34:53.585Z,0.70
2022-08-09T20:37:22.711Z,0.93
2022-08-09T20:40:16.033Z,0.70
2022-08-09T20:42:39.477Z,0.70
2022-08-09T20:46:00.803Z,0.65
2022-08-09T20:47:55.247Z,0.63
2022-08-09T20:50:47.119Z,0.60
2022-08-09T20:53:18.793Z,0.60
2022-08-09T20:56:02.993Z,0.70
2022-08-09T20:58:32.673Z,0.98
2022-08-09T21:01:13.661Z,0.70
2022-08-09T21:04:07.923Z,0.52
2022-08-09T21:06:35.914Z,0.60
2022-08-09T21:09:04.983Z,0.50
2022-08-09T21:14:26.923Z,0.70
2022-08-09T21:17:00.041Z,0.63
2022-08-09T21:20:18.595Z,0.90
2022-08-09T21:22:35.620Z,0.70
2022-08-09T21:25:21.272Z,0.70
2022-08-09T21:27:51.675Z,0.50
2022-08-09T21:30:29.094Z,0.60
2022-08-09T21:32:57.308Z,0.57
2022-08-09T21:35:24.861Z,0.60
2022-08-09T21:37:59.197Z,0.50
2022-08-09T21:40:32.672Z,0.57
2022-08-09T21:43:00.216Z,0.60
2022-08-09T21:45:28.278Z,0.70
2022-08-09T21:47:55.801Z,0.75
2022-08-09T21:50:35.756Z,0.40
2022-08-09T21:53:06.063Z,0.70
2022-08-09T21:55:34.757Z,0.65
2022-08-09T21:58:02.470Z,0.77
2022-08-09T22:00:31.851Z,0.68
2022-08-09T22:03:00.748Z,0.60
2022-08-09T22:05:33.652Z,0.57
2022-08-09T22:08:04.038Z,0.60
2022-08-09T22:10:31.436Z,0.60
2022-08-09T22:13:07.521Z,0.50
2022-08-09T22:15:39.076Z,0.60
2022-08-09T22:18:12.128Z,0.60
2022-08-09T22:20:39.913Z,0.60
2022-08-09T22:23:10.636Z,0.63
2022-08-09T22:26:07.823Z,0.50
2022-08-09T22:28:33.052Z,0.77
2022-08-09T22:31:00.776Z,0.47
2022-08-09T22:33:42.662Z,0.70
2022-08-09T22:36:19.218Z,0.60
2022-08-09T22:38:47.094Z,0.50
2022-08-09T22:41:14.477Z,0.60
2022-08-09T22:44:02.035Z,0.70
2022-08-09T22:48:18.328Z,0.65
2022-08-09T22:49:17.917Z,0.70
2022-08-09T22:51:49.364Z,0.60
2022-08-09T22:54:26.932Z,0.75
2022-08-09T22:56:56.725Z,0.55
2022-08-09T22:59:56.229Z,0.63
2022-08-09T23:02:15.007Z,0.90
2022-08-09T23:04:45.172Z,0.70
2022-08-09T23:08:22.030Z,0.73
2022-08-09T23:10:26.684Z,0.85
2022-08-09T23:12:54.046Z,0.60
2022-08-09T23:15:22.777Z,0.68
2022-08-09T23:17:50.178Z,0.70
2022-08-09T23:20:17.565Z,0.60
2022-08-09T23:22:44.971Z,0.70
2022-08-09T23:25:12.294Z,0.80
2022-08-09T23:28:12.467Z,0.70
2022-08-09T23:30:28.344Z,0.52
2022-08-09T23:32:55.689Z,0.70
2022-08-09T23:35:23.059Z,0.70
2022-08-09T23:37:50.439Z,0.68
2022-08-09T23:40:17.907Z,0.70
2022-08-09T23:42:45.288Z,0.70
2022-08-09T23:45:37.761Z,0.57
2022-08-09T23:48:05.434Z,0.80
2022-08-09T23:50:36.035Z,0.60
2022-08-09T23:53:03.561Z,0.70
2022-08-09T23:55:30.916Z,0.85
2022-08-09T23:58:09.252Z,0.60
